createdAt,value
2023-02-06T00:00:57.329Z,100781.28
2023-02-06T00:03:26.488Z,100779.47
2023-02-06T00:05:58.008Z,100789.84
2023-02-06T00:08:26.033Z,100787.19
2023-02-06T00:10:54.145Z,100782.03
2023-02-06T00:13:24.987Z,100785.50
2023-02-06T00:15:52.704Z,100787.97
2023-02-06T00:18:20.514Z,100783.63
2023-02-06T00:20:49.685Z,100795.22
2023-02-06T00:23:17.656Z,100787.16
2023-02-06T00:25:45.536Z,100781.03
2023-02-06T00:28:13.572Z,100784.94
2023-02-06T00:30:41.557Z,100785.44
2023-02-06T00:33:11.808Z,100783.59
2023-02-06T00:35:39.613Z,100782.22
2023-02-06T00:38:10.179Z,100792.50
2023-02-06T00:40:38.009Z,100792.00
2023-02-06T00:43:07.913Z,100787.94
2023-02-06T00:45:35.939Z,100777.56
2023-02-06T00:48:04.147Z,100784.84
2023-02-06T00:50:31.955Z,100781.69
2023-02-06T00:52:59.722Z,100785.69
2023-02-06T00:55:29.616Z,100781.88
2023-02-06T00:57:57.449Z,100780.75
2023-02-06T01:00:25.164Z,100777.50
2023-02-06T01:02:53.086Z,100785.31
2023-02-06T01:05:21.576Z,100782.69
2023-02-06T01:07:49.420Z,100781.00
2023-02-06T01:10:17.666Z,100781.97
2023-02-06T01:12:46.864Z,100780.91
2023-02-06T01:15:15.485Z,100776.63
2023-02-06T01:17:43.698Z,100782.66
2023-02-06T01:20:14.721Z,100798.47
2023-02-06T01:22:42.803Z,100803.72
2023-02-06T01:25:13.096Z,100787.38
2023-02-06T01:27:40.942Z,100791.59
2023-02-06T01:30:13.659Z,100800.13
2023-02-06T01:32:42.674Z,100791.53
2023-02-06T01:35:12.488Z,100794.94
2023-02-06T01:37:42.003Z,100793.31
2023-02-06T01:40:14.504Z,100796.84
2023-02-06T01:42:42.420Z,100782.16
2023-02-06T01:45:45.787Z,100782.91
2023-02-06T01:48:18.392Z,100781.16
2023-02-06T01:50:52.433Z,100776.19
2023-02-06T01:53:23.463Z,100775.28
2023-02-06T01:55:53.384Z,100774.38
2023-02-06T01:58:29.046Z,100783.88
2023-02-06T02:01:00.442Z,100782.31
2023-02-06T02:03:32.937Z,100778.63
2023-02-06T02:06:06.499Z,100779.50
2023-02-06T02:08:38.693Z,100788.22
2023-02-06T02:11:08.383Z,100786.56
2023-02-06T02:13:39.282Z,100782.16
2023-02-06T02:16:16.577Z,100781.41
2023-02-06T02:19:21.948Z,100775.81
2023-02-06T02:22:12.384Z,100774.34
2023-02-06T02:25:00.649Z,100775.97
2023-02-06T02:27:52.916Z,100775.31
2023-02-06T02:31:08.001Z,100780.63
2023-02-06T02:33:56.378Z,100783.09
2023-02-06T02:36:31.482Z,100778.75
2023-02-06T02:39:09.954Z,100775.13
2023-02-06T02:41:45.803Z,100772.69
2023-02-06T02:44:20.875Z,100767.41
2023-02-06T02:46:52.313Z,100757.63
2023-02-06T02:49:24.773Z,100766.13
2023-02-06T02:51:55.597Z,100768.13
2023-02-06T02:54:23.395Z,100764.69
2023-02-06T02:56:51.271Z,100759.53
2023-02-06T02:59:24.179Z,100755.25
2023-02-06T03:01:59.009Z,100762.06
2023-02-06T03:04:31.600Z,100761.97
2023-02-06T03:07:14.576Z,100768.22
2023-02-06T03:09:59.336Z,100774.13
2023-02-06T03:12:38.905Z,100766.28
2023-02-06T03:15:14.602Z,100764.53
2023-02-06T03:17:48.480Z,100758.91
2023-02-06T03:20:18.090Z,100758.59
2023-02-06T03:22:50.891Z,100759.44
2023-02-06T03:25:24.914Z,100768.09
2023-02-06T03:27:55.666Z,100762.22
2023-02-06T03:30:24.219Z,100755.22
2023-02-06T03:33:02.362Z,100752.78
2023-02-06T03:35:33.647Z,100753.66
2023-02-06T03:38:03.530Z,100754.75
2023-02-06T03:40:31.940Z,100755.41
2023-02-06T03:43:02.722Z,100756.91
2023-02-06T03:45:33.982Z,100758.81
2023-02-06T03:48:05.225Z,100758.88
2023-02-06T03:50:37.651Z,100762.63
2023-02-06T03:53:11.362Z,100761.75
2023-02-06T03:55:41.543Z,100769.53
2023-02-06T03:58:14.474Z,100780.91
2023-02-06T04:00:44.906Z,100778.97
2023-02-06T04:03:14.817Z,100776.63
2023-02-06T04:05:42.749Z,100775.03
2023-02-06T04:08:11.981Z,100770.84
2023-02-06T04:10:39.785Z,100783.13
2023-02-06T04:13:07.661Z,100783.16
2023-02-06T04:15:35.755Z,100775.38
2023-02-06T04:18:05.173Z,100775.13
2023-02-06T04:20:34.349Z,100774.25
2023-02-06T04:23:04.369Z,100778.63
2023-02-06T04:25:33.551Z,100774.34
2023-02-06T04:28:01.485Z,100770.69
2023-02-06T04:30:29.402Z,100768.16
2023-02-06T04:32:57.261Z,100769.28
2023-02-06T04:35:25.008Z,100764.13
2023-02-06T04:37:52.767Z,100766.56
2023-02-06T04:40:20.674Z,100770.41
2023-02-06T04:42:49.819Z,100778.41
2023-02-06T04:45:17.713Z,100761.84
2023-02-06T04:47:49.366Z,100765.84
2023-02-06T04:50:17.526Z,100774.97
2023-02-06T04:52:45.483Z,100776.84
2023-02-06T04:55:13.318Z,100775.91
2023-02-06T04:57:42.405Z,100770.66
2023-02-06T05:00:15.161Z,100771.44
2023-02-06T05:02:43.207Z,100777.34
2023-02-06T05:05:11.195Z,100764.16
2023-02-06T05:07:39.106Z,100776.53
2023-02-06T05:10:09.997Z,100782.50
2023-02-06T05:12:39.876Z,100780.91
2023-02-06T05:15:08.990Z,100780.13
2023-02-06T05:17:38.172Z,100779.72
2023-02-06T05:20:07.068Z,100778.81
2023-02-06T05:22:34.824Z,100779.59
2023-02-06T05:25:02.603Z,100777.81
2023-02-06T05:27:30.568Z,100780.34
2023-02-06T05:29:58.358Z,100779.31
2023-02-06T05:32:26.164Z,100780.34
2023-02-06T05:34:55.244Z,100786.59
2023-02-06T05:37:23.158Z,100786.16
2023-02-06T05:39:50.866Z,100777.75
2023-02-06T05:42:18.675Z,100773.69
2023-02-06T05:44:46.431Z,100776.19
2023-02-06T05:47:14.255Z,100774.09
2023-02-06T05:49:44.866Z,100779.63
2023-02-06T05:52:14.038Z,100770.19
2023-02-06T05:54:41.870Z,100774.44
2023-02-06T05:57:09.765Z,100778.13
2023-02-06T05:59:37.583Z,100779.75
2023-02-06T06:02:07.760Z,100781.28
2023-02-06T06:04:35.587Z,100775.84
2023-02-06T06:07:03.350Z,100775.41
2023-02-06T06:09:32.442Z,100779.56
2023-02-06T06:12:00.140Z,100783.91
2023-02-06T06:14:28.222Z,100788.13
2023-02-06T06:16:55.988Z,100782.91
2023-02-06T06:19:23.862Z,100784.88
2023-02-06T06:21:51.599Z,100784.91
2023-02-06T06:24:19.542Z,100786.66
2023-02-06T06:26:48.710Z,100783.88
2023-02-06T06:29:16.496Z,100786.47
2023-02-06T06:31:45.542Z,100793.38
2023-02-06T06:34:13.296Z,100809.00
2023-02-06T06:36:41.070Z,100804.56
2023-02-06T06:39:08.993Z,100791.16
2023-02-06T06:41:36.756Z,100794.06
2023-02-06T06:44:06.141Z,100794.19
2023-02-06T06:46:33.905Z,100794.13
2023-02-06T06:49:04.063Z,100791.72
2023-02-06T06:51:31.794Z,100800.44
2023-02-06T06:54:02.161Z,100798.78
2023-02-06T06:56:29.942Z,100797.03
2023-02-06T06:58:57.758Z,100798.94
2023-02-06T07:01:26.926Z,100800.81
2023-02-06T07:03:54.723Z,100797.31
2023-02-06T07:06:22.482Z,100799.88
2023-02-06T07:08:50.221Z,100800.63
2023-02-06T07:11:18.536Z,100808.44
2023-02-06T07:13:46.973Z,100802.13
2023-02-06T07:16:14.786Z,100800.34
2023-02-06T07:18:43.973Z,100800.78
2023-02-06T07:21:14.175Z,100802.34
2023-02-06T07:23:41.911Z,100807.63
2023-02-06T07:26:09.816Z,100812.81
2023-02-06T07:28:38.031Z,100814.63
2023-02-06T07:31:08.009Z,100816.34
2023-02-06T07:33:36.522Z,100814.47
2023-02-06T07:36:05.986Z,100815.41
2023-02-06T07:38:33.704Z,100815.31
2023-02-06T07:41:04.408Z,100827.72
2023-02-06T07:43:32.629Z,100824.22
2023-02-06T07:46:01.697Z,100810.34
2023-02-06T07:48:29.848Z,100814.47
2023-02-06T07:50:57.620Z,100812.72
2023-02-06T07:53:26.737Z,100816.00
2023-02-06T07:55:54.570Z,100813.56
2023-02-06T07:58:22.658Z,100818.88
2023-02-06T08:00:50.538Z,100808.13
2023-02-06T08:03:18.320Z,100806.66
2023-02-06T08:05:46.055Z,100801.25
2023-02-06T08:08:13.822Z,100803.81
2023-02-06T08:10:42.924Z,100815.56
2023-02-06T08:13:10.661Z,100812.69
2023-02-06T08:15:38.633Z,100809.84
2023-02-06T08:18:07.352Z,100811.25
2023-02-06T08:20:35.102Z,100799.50
2023-02-06T08:23:04.121Z,100801.81
2023-02-06T08:25:32.006Z,100793.28
2023-02-06T08:28:01.138Z,100797.38
2023-02-06T08:30:29.190Z,100786.69
2023-02-06T08:32:57.181Z,100795.75
2023-02-06T08:35:24.982Z,100803.81
2023-02-06T08:37:54.889Z,100810.78
2023-02-06T08:40:22.609Z,100809.03
2023-02-06T08:42:52.110Z,100810.97
2023-02-06T08:45:23.627Z,100812.88
2023-02-06T08:47:51.572Z,100799.06
2023-02-06T08:50:21.629Z,100804.09
2023-02-06T08:52:49.361Z,100797.09
2023-02-06T08:55:17.470Z,100808.53
2023-02-06T08:57:45.204Z,100815.56
2023-02-06T09:00:14.517Z,100823.28
2023-02-06T09:02:43.707Z,100814.34
2023-02-06T09:05:11.537Z,100815.19
2023-02-06T09:07:39.331Z,100815.88
2023-02-06T09:10:16.177Z,100814.28
2023-02-06T09:12:53.543Z,100814.53
2023-02-06T09:15:21.316Z,100806.66
2023-02-06T09:17:50.488Z,100803.78
2023-02-06T09:20:18.698Z,100806.03
2023-02-06T09:22:48.544Z,100801.69
2023-02-06T09:25:16.382Z,100794.66
2023-02-06T09:27:46.725Z,100793.56
2023-02-06T09:30:15.611Z,100801.75
2023-02-06T09:32:44.041Z,100803.59
2023-02-06T09:35:13.230Z,100799.25
2023-02-06T09:37:41.077Z,100788.88
2023-02-06T09:40:11.836Z,100783.50
2023-02-06T09:42:41.907Z,100781.50
2023-02-06T09:45:14.835Z,100771.69
2023-02-06T09:47:49.108Z,100774.84
2023-02-06T09:50:27.806Z,100774.91
2023-02-06T09:53:13.916Z,100767.53
2023-02-06T09:55:43.701Z,100758.69
2023-02-06T09:58:22.719Z,100759.41
2023-02-06T10:00:54.658Z,100755.16
2023-02-06T10:03:57.278Z,100748.91
2023-02-06T10:06:29.690Z,100743.75
2023-02-06T10:09:02.664Z,100741.75
2023-02-06T10:11:42.886Z,100740.66
2023-02-06T10:14:19.155Z,100728.31
2023-02-06T10:16:49.948Z,100740.72
2023-02-06T10:19:23.586Z,100734.34
2023-02-06T10:21:56.967Z,100730.63
2023-02-06T10:24:34.361Z,100726.00
2023-02-06T10:27:05.911Z,100725.16
2023-02-06T10:29:36.315Z,100718.50
2023-02-06T10:32:20.376Z,100714.19
2023-02-06T10:35:07.094Z,100724.69
2023-02-06T10:37:59.076Z,100720.84
2023-02-06T10:40:44.493Z,100715.91
2023-02-06T10:43:20.793Z,100716.97
2023-02-06T10:45:58.278Z,100719.44
2023-02-06T10:48:33.001Z,100720.47
2023-02-06T10:51:11.118Z,100723.03
2023-02-06T10:53:49.665Z,100727.81
2023-02-06T10:56:19.936Z,100726.19
2023-02-06T10:58:53.297Z,100723.09
2023-02-06T11:01:26.410Z,100707.00
2023-02-06T11:04:00.932Z,100708.41
2023-02-06T11:06:30.847Z,100705.13
2023-02-06T11:09:00.082Z,100702.91
2023-02-06T11:11:30.667Z,100702.28
2023-02-06T11:14:05.417Z,100700.81
2023-02-06T11:16:36.143Z,100705.69
2023-02-06T11:19:16.389Z,100690.88
2023-02-06T11:21:50.860Z,100691.69
2023-02-06T11:24:21.649Z,100677.50
2023-02-06T11:26:52.552Z,100677.41
2023-02-06T11:29:23.415Z,100681.25
2023-02-06T11:31:56.836Z,100687.75
2023-02-06T11:34:28.694Z,100684.00
2023-02-06T11:36:58.140Z,100681.88
2023-02-06T11:39:31.360Z,100681.22
2023-02-06T11:42:02.621Z,100680.66
2023-02-06T11:44:37.356Z,100669.56
2023-02-06T11:47:29.709Z,100666.13
2023-02-06T11:50:22.092Z,100668.28
2023-02-06T11:52:52.395Z,100672.00
2023-02-06T11:55:24.559Z,100672.09
2023-02-06T11:58:04.242Z,100671.00
2023-02-06T12:00:32.728Z,100665.34
2023-02-06T12:03:00.521Z,100671.06
2023-02-06T12:05:34.442Z,100666.56
2023-02-06T12:08:06.305Z,100659.72
2023-02-06T12:10:39.787Z,100652.34
2023-02-06T12:13:10.489Z,100638.81
2023-02-06T12:15:47.260Z,100642.56
2023-02-06T12:18:19.684Z,100646.09
2023-02-06T12:20:51.884Z,100632.28
2023-02-06T12:23:25.597Z,100632.53
2023-02-06T12:25:58.268Z,100632.41
2023-02-06T12:28:30.792Z,100632.28
2023-02-06T12:31:03.560Z,100635.47
2023-02-06T12:33:38.513Z,100631.25
2023-02-06T12:36:12.290Z,100637.59
2023-02-06T12:38:44.798Z,100625.22
2023-02-06T12:41:39.835Z,100627.84
2023-02-06T12:44:28.030Z,100632.34
2023-02-06T12:47:01.371Z,100630.56
2023-02-06T12:49:33.028Z,100624.81
2023-02-06T12:52:06.098Z,100613.34
2023-02-06T12:54:38.658Z,100610.44
2023-02-06T12:57:15.679Z,100601.88
2023-02-06T13:00:11.792Z,100613.31
2023-02-06T13:03:04.483Z,100617.28
2023-02-06T13:05:37.087Z,100617.03
2023-02-06T13:08:08.846Z,100601.03
2023-02-06T13:10:38.372Z,100597.69
2023-02-06T13:13:08.225Z,100596.59
2023-02-06T13:15:39.259Z,100594.41
2023-02-06T13:18:36.161Z,100599.13
2023-02-06T13:21:18.465Z,100594.88
2023-02-06T13:24:07.661Z,100590.38
2023-02-06T13:27:10.246Z,100584.19
2023-02-06T13:29:42.942Z,100591.56
2023-02-06T13:32:43.135Z,100598.16
2023-02-06T13:35:22.409Z,100584.94
2023-02-06T13:37:51.638Z,100580.41
2023-02-06T13:40:30.310Z,100579.50
2023-02-06T13:43:04.066Z,100585.94
2023-02-06T13:45:37.250Z,100581.94
2023-02-06T13:48:46.899Z,100579.16
2023-02-06T13:51:38.530Z,100580.47
2023-02-06T13:54:41.639Z,100576.50
2023-02-06T13:57:39.180Z,100576.59
2023-02-06T14:00:15.738Z,100576.69
2023-02-06T14:02:48.499Z,100586.38
2023-02-06T14:05:19.897Z,100592.09
2023-02-06T14:08:02.958Z,100590.66
2023-02-06T14:11:01.329Z,100594.94
2023-02-06T14:13:40.427Z,100600.72
2023-02-06T14:16:29.962Z,100589.22
2023-02-06T14:19:02.486Z,100596.16
2023-02-06T14:21:40.292Z,100596.00
2023-02-06T14:24:27.610Z,100595.13
2023-02-06T14:27:14.657Z,100591.28
2023-02-06T14:29:50.488Z,100601.91
2023-02-06T14:32:33.640Z,100595.94
2023-02-06T14:35:14.203Z,100590.91
2023-02-06T14:38:00.768Z,100592.34
2023-02-06T14:40:33.449Z,100596.13
2023-02-06T14:43:05.666Z,100593.06
2023-02-06T14:45:41.765Z,100594.72
2023-02-06T14:48:20.844Z,100609.75
2023-02-06T14:50:55.525Z,100601.03
2023-02-06T14:53:28.157Z,100600.72
2023-02-06T14:56:07.585Z,100588.19
2023-02-06T14:58:36.309Z,100589.13
2023-02-06T15:01:21.966Z,100583.00
2023-02-06T15:03:52.468Z,100586.09
2023-02-06T15:06:33.335Z,100595.13
2023-02-06T15:09:01.836Z,100596.50
2023-02-06T15:11:32.700Z,100598.59
2023-02-06T15:14:02.986Z,100598.06
2023-02-06T15:16:33.036Z,100595.03
2023-02-06T15:19:12.277Z,100585.66
2023-02-06T15:21:44.112Z,100598.19
2023-02-06T15:24:26.799Z,100603.56
2023-02-06T15:27:01.779Z,100599.75
2023-02-06T15:29:29.585Z,100590.59
2023-02-06T15:32:04.377Z,100595.91
2023-02-06T15:34:32.718Z,100583.50
2023-02-06T15:37:01.903Z,100588.69
2023-02-06T15:39:29.870Z,100589.81
2023-02-06T15:41:57.922Z,100588.66
2023-02-06T15:44:29.234Z,100598.91
2023-02-06T15:46:58.087Z,100595.69
2023-02-06T15:49:37.874Z,100590.31
2023-02-06T15:52:07.236Z,100593.81
2023-02-06T15:54:40.182Z,100602.47
2023-02-06T15:57:18.701Z,100591.97
2023-02-06T15:59:46.780Z,100591.91
2023-02-06T16:02:23.595Z,100591.03
2023-02-06T16:04:55.034Z,100595.28
2023-02-06T16:07:27.480Z,100592.66
2023-02-06T16:09:57.994Z,100590.19
2023-02-06T16:12:27.532Z,100584.91
2023-02-06T16:14:57.542Z,100592.47
2023-02-06T16:17:31.294Z,100586.53
2023-02-06T16:20:02.254Z,100580.59
2023-02-06T16:22:33.442Z,100580.22
2023-02-06T16:25:21.773Z,100570.34
2023-02-06T16:27:51.219Z,100577.38
2023-02-06T16:30:26.519Z,100576.31
2023-02-06T16:32:55.566Z,100575.50
2023-02-06T16:35:24.274Z,100570.22
2023-02-06T16:37:55.248Z,100555.34
2023-02-06T16:40:23.162Z,100558.84
2023-02-06T16:42:52.519Z,100563.88
2023-02-06T16:45:24.522Z,100574.09
2023-02-06T16:47:52.933Z,100581.09
2023-02-06T16:50:23.650Z,100583.91
2023-02-06T16:52:57.949Z,100592.59
2023-02-06T16:55:28.823Z,100596.28
2023-02-06T16:58:02.195Z,100595.41
2023-02-06T17:00:31.826Z,100601.81
2023-02-06T17:02:59.879Z,100606.03
2023-02-06T17:05:29.354Z,100598.31
2023-02-06T17:07:58.594Z,100600.13
2023-02-06T17:10:28.116Z,100586.84
2023-02-06T17:12:58.315Z,100584.91
2023-02-06T17:15:26.471Z,100572.00
2023-02-06T17:17:54.907Z,100566.56
2023-02-06T17:20:30.698Z,100569.22
2023-02-06T17:22:59.905Z,100572.56
2023-02-06T17:25:28.282Z,100575.38
2023-02-06T17:27:57.168Z,100570.03
2023-02-06T17:30:26.976Z,100572.59
2023-02-06T17:32:54.830Z,100572.88
2023-02-06T17:35:22.667Z,100585.78
2023-02-06T17:37:51.582Z,100583.66
2023-02-06T17:40:23.282Z,100591.25
2023-02-06T17:42:51.462Z,100584.06
2023-02-06T17:45:19.342Z,100585.94
2023-02-06T17:47:47.746Z,100582.47
2023-02-06T17:50:19.459Z,100581.53
2023-02-06T17:52:47.581Z,100579.91
2023-02-06T17:55:17.741Z,100580.31
2023-02-06T17:57:46.844Z,100575.31
2023-02-06T18:00:20.534Z,100566.19
2023-02-06T18:02:48.582Z,100568.97
2023-02-06T18:05:18.864Z,100566.19
2023-02-06T18:07:49.482Z,100558.31
2023-02-06T18:10:17.828Z,100560.06
2023-02-06T18:12:47.550Z,100566.31
2023-02-06T18:15:16.194Z,100564.72
2023-02-06T18:17:46.381Z,100557.59
2023-02-06T18:20:15.028Z,100566.66
2023-02-06T18:22:43.067Z,100557.84
2023-02-06T18:25:12.873Z,100548.19
2023-02-06T18:27:45.442Z,100551.38
2023-02-06T18:30:17.168Z,100558.50
2023-02-06T18:32:44.986Z,100545.53
2023-02-06T18:35:14.796Z,100550.09
2023-02-06T18:37:45.167Z,100553.66
2023-02-06T18:40:13.498Z,100561.50
2023-02-06T18:42:53.802Z,100561.47
2023-02-06T18:45:31.198Z,100564.03
2023-02-06T18:47:59.080Z,100560.75
2023-02-06T18:50:27.014Z,100560.63
2023-02-06T18:52:54.913Z,100563.22
2023-02-06T18:55:23.246Z,100573.00
2023-02-06T18:57:51.095Z,100571.09
2023-02-06T19:00:20.920Z,100560.66
2023-02-06T19:02:50.253Z,100559.00
2023-02-06T19:05:18.797Z,100549.81
2023-02-06T19:07:50.502Z,100549.09
2023-02-06T19:10:18.422Z,100544.44
2023-02-06T19:12:47.028Z,100542.94
2023-02-06T19:15:16.370Z,100548.16
2023-02-06T19:17:44.161Z,100557.16
2023-02-06T19:20:13.951Z,100556.34
2023-02-06T19:22:41.839Z,100555.75
2023-02-06T19:25:14.225Z,100557.44
2023-02-06T19:27:42.523Z,100567.38
2023-02-06T19:30:11.245Z,100572.69
2023-02-06T19:32:39.270Z,100574.53
2023-02-06T19:35:07.886Z,100559.06
2023-02-06T19:37:37.128Z,100560.09
2023-02-06T19:40:05.584Z,100560.16
2023-02-06T19:42:33.423Z,100556.38
2023-02-06T19:45:01.305Z,100555.59
2023-02-06T19:47:29.148Z,100551.22
2023-02-06T19:49:56.997Z,100557.56
2023-02-06T19:52:24.769Z,100555.00
2023-02-06T19:54:54.143Z,100556.81
2023-02-06T19:57:21.971Z,100551.53
2023-02-06T19:59:49.868Z,100550.97
2023-02-06T20:02:17.686Z,100557.94
2023-02-06T20:04:46.310Z,100559.63
2023-02-06T20:07:14.432Z,100576.13
2023-02-06T20:09:42.741Z,100577.03
2023-02-06T20:12:13.063Z,100584.00
2023-02-06T20:14:41.281Z,100579.72
2023-02-06T20:17:09.069Z,100573.47
2023-02-06T20:19:36.887Z,100577.78
2023-02-06T20:22:07.099Z,100576.09
2023-02-06T20:24:34.968Z,100568.25
2023-02-06T20:27:07.165Z,100565.63
2023-02-06T20:29:38.848Z,100549.16
2023-02-06T20:32:19.367Z,100545.78
2023-02-06T20:34:47.403Z,100550.22
2023-02-06T20:37:17.562Z,100561.53
2023-02-06T20:39:45.414Z,100570.06
2023-02-06T20:42:13.209Z,100580.53
2023-02-06T20:44:42.440Z,100583.88
2023-02-06T20:47:10.264Z,100586.56
2023-02-06T20:49:38.159Z,100581.31
2023-02-06T20:52:06.368Z,100590.69
2023-02-06T20:54:34.283Z,100589.00
2023-02-06T20:57:02.126Z,100580.56
2023-02-06T20:59:30.545Z,100577.16
2023-02-06T21:01:59.706Z,100570.03
2023-02-06T21:04:27.925Z,100569.31
2023-02-06T21:06:56.315Z,100570.16
2023-02-06T21:09:24.132Z,100562.53
2023-02-06T21:11:51.920Z,100559.94
2023-02-06T21:14:20.648Z,100553.09
2023-02-06T21:16:49.438Z,100556.50
2023-02-06T21:19:20.922Z,100555.66
2023-02-06T21:21:49.346Z,100554.69
2023-02-06T21:24:19.505Z,100542.47
2023-02-06T21:26:47.350Z,100528.63
2023-02-06T21:29:15.974Z,100534.69
2023-02-06T21:31:44.701Z,100532.59
2023-02-06T21:34:21.293Z,100539.44
2023-02-06T21:36:49.917Z,100544.78
2023-02-06T21:39:20.245Z,100547.00
2023-02-06T21:41:51.545Z,100549.53
2023-02-06T21:44:19.401Z,100549.38
2023-02-06T21:46:47.254Z,100549.75
2023-02-06T21:49:15.126Z,100550.56
2023-02-06T21:51:44.310Z,100547.09
2023-02-06T21:54:14.480Z,100549.38
2023-02-06T21:56:42.260Z,100542.81
2023-02-06T21:59:11.990Z,100548.59
2023-02-06T22:01:41.033Z,100538.16
2023-02-06T22:04:10.337Z,100538.09
2023-02-06T22:06:38.502Z,100538.03
2023-02-06T22:09:15.208Z,100544.69
2023-02-06T22:11:43.871Z,100542.13
2023-02-06T22:14:13.273Z,100551.16
2023-02-06T22:16:41.766Z,100552.69
2023-02-06T22:19:11.120Z,100550.16
2023-02-06T22:21:39.113Z,100547.66
2023-02-06T22:24:08.925Z,100547.59
2023-02-06T22:26:39.388Z,100543.34
2023-02-06T22:29:08.272Z,100543.22
2023-02-06T22:31:38.574Z,100536.19
2023-02-06T22:34:06.477Z,100538.78
2023-02-06T22:36:34.698Z,100545.81
2023-02-06T22:39:06.372Z,100545.91
2023-02-06T22:41:34.682Z,100543.28
2023-02-06T22:44:03.961Z,100554.53
2023-02-06T22:46:33.647Z,100545.88
2023-02-06T22:49:02.195Z,100532.91
2023-02-06T22:51:29.962Z,100539.06
2023-02-06T22:53:57.757Z,100539.00
2023-02-06T22:56:31.367Z,100530.34
2023-02-06T22:59:01.421Z,100556.47
2023-02-06T23:01:33.339Z,100561.66
2023-02-06T23:04:02.683Z,100565.97
2023-02-06T23:06:34.337Z,100572.16
2023-02-06T23:09:04.606Z,100575.66
2023-02-06T23:11:32.988Z,100572.94
2023-02-06T23:14:03.731Z,100568.66
2023-02-06T23:16:34.580Z,100573.81
2023-02-06T23:19:04.466Z,100579.97
2023-02-06T23:21:33.544Z,100571.09
2023-02-06T23:24:01.699Z,100569.38
2023-02-06T23:26:30.205Z,100571.19
2023-02-06T23:28:59.006Z,100569.53
2023-02-06T23:31:30.313Z,100571.34
2023-02-06T23:33:59.626Z,100579.16
2023-02-06T23:36:30.584Z,100587.03
2023-02-06T23:38:58.486Z,100598.25
2023-02-06T23:41:28.589Z,100604.34
2023-02-06T23:43:58.656Z,100608.72
2023-02-06T23:46:28.139Z,100608.63
2023-02-06T23:48:56.364Z,100612.16
2023-02-06T23:51:26.086Z,100608.63
2023-02-06T23:53:53.940Z,100613.88
2023-02-06T23:56:23.568Z,100617.38
2023-02-06T23:58:51.875Z,100620.88
